CheckWX is a tool to help pilots better visualize weather data.  It is not intended as a substitute for an official pre-flight weather briefing.

17:58:34 UTC

PAKF METAR
False Pass Airport
False Pass, Alaska, USA
Current

1 hour ago

PAKF 171656Z AUTO 27009G15KT 10SM FEW042 03/M04 A2989 RMK AO2 PK WND 30029/1558 SLP122 T00281044
Observed
Feb-17 @ 16:56 UTC
Wind
  • 270° at 9 KTS
  • Gusting to 15 KTS
Visibility
10 SM
Flight Rules
VFR
Cloud Levels
  • Few at 4,200' AGL
Temperature
C / 37°F
Dewpoint
-4°C / 25°F
Humidity
60%
Altimeter
29.89" Hg
Pressure
1012.2 hPa
Previous

2 hours ago

PAKF 171556Z AUTO 30017G27KT 10SM BKN038 03/M04 A2985 RMK AO2 PK WND 26029/1541 SLP109 T00281044
Observed
Feb-17 @ 15:56 UTC
Wind
  • 300° at 17 KTS
  • Gusting to 27 KTS
Visibility
10 SM
Flight Rules
VFR
Cloud Levels
  • Broken at 3,800' AGL
Temperature
C / 37°F
Dewpoint
-4°C / 25°F
Humidity
60%
Altimeter
29.85" Hg
Pressure
1010.9 hPa
Previous

3 hours ago

PAKF 171456Z AUTO 29019G33KT 10SM BKN032 03/M04 A2981 RMK AO2 PK WND 28033/1455 RAB07E14SNE07 SLP095 P0000 60000 T00281039 51051
Observed
Feb-17 @ 14:56 UTC
Wind
  • 290° at 19 KTS
  • Gusting to 33 KTS
Visibility
10 SM
Flight Rules
VFR
Cloud Levels
  • Broken at 3,200' AGL
Temperature
C / 37°F
Dewpoint
-4°C / 25°F
Humidity
60%
Altimeter
29.81" Hg
Pressure
1009.5 hPa
Current Rain
0.01"